Time;durP1;ratioP1;P1;durP2;ratioP2;P2;SDS_P1;SDS_P2;PMS_P1;PMS_P2;Temp;Humidity;BMP_temperature;BMP_pressure;BME280_temperature;BME280_humidity;BME280_pressure;Samples;Min_cycle;Max_cycle;Signal;HPM_P1;HPM_P2
2021/01/13 00:00:14;;;;;;;17.80;7.40;;;;;;;3.67;72.57;101061.28;4443412;32;20521;-85
2021/01/13 00:02:41;;;;;;;22.02;8.80;;;;;;;3.55;72.81;101047.66;4440263;32;20118;-85
2021/01/13 00:05:08;;;;;;;22.02;7.65;;;;;;;3.62;73.23;101040.19;4430155;32;20045;-85
2021/01/13 00:07:34;;;;;;;26.98;8.13;;;;;;;3.57;72.97;101040.56;4438983;32;20063;-84
2021/01/13 00:09:59;;;;;;;19.58;7.03;;;;;;;3.63;72.54;101038.22;4442034;32;20104;-85
2021/01/13 00:12:26;;;;;;;19.25;7.28;;;;;;;3.58;72.88;101036.56;4441876;32;20470;-85
2021/01/13 00:14:52;;;;;;;23.08;8.25;;;;;;;3.63;72.96;101041.00;4443228;32;20491;-85
2021/01/13 00:17:18;;;;;;;22.85;7.57;;;;;;;3.67;72.92;101039.03;4444281;32;20109;-85
2021/01/13 00:19:43;;;;;;;21.60;7.43;;;;;;;3.67;72.69;101027.91;4446203;32;20021;-85
2021/01/13 00:22:09;;;;;;;24.35;8.30;;;;;;;3.59;73.13;101023.47;4446150;32;20501;-85
2021/01/13 00:24:35;;;;;;;19.00;8.07;;;;;;;3.66;73.08;101017.97;4442845;32;20453;-84
2021/01/13 00:27:03;;;;;;;19.77;7.57;;;;;;;3.68;72.59;101021.13;4446765;32;20147;-85
2021/01/13 00:29:30;;;;;;;21.85;8.63;;;;;;;3.66;72.82;101015.19;4431760;32;20089;-85
2021/01/13 00:31:58;;;;;;;22.05;8.20;;;;;;;3.56;72.80;101008.31;4444125;32;20116;-85
2021/01/13 00:34:28;;;;;;;19.25;6.57;;;;;;;3.55;73.22;101015.09;4467239;26;20053;-90
2021/01/13 00:36:54;;;;;;;20.00;6.62;;;;;;;3.59;72.89;100999.22;4422702;32;20064;-92
2021/01/13 00:39:20;;;;;;;19.25;6.85;;;;;;;3.62;72.77;101000.44;4405519;32;20590;-90
2021/01/13 00:41:46;;;;;;;17.52;6.65;;;;;;;3.58;72.21;100997.62;4396165;32;20089;-92
2021/01/13 00:44:12;;;;;;;14.40;6.05;;;;;;;3.59;72.12;100992.87;4418974;32;20025;-91
2021/01/13 00:46:40;;;;;;;17.85;6.72;;;;;;;3.56;71.95;100997.19;4406120;32;20072;-91
2021/01/13 00:49:07;;;;;;;23.45;6.90;;;;;;;3.57;72.22;100998.00;4408183;32;20065;-90
2021/01/13 00:51:38;;;;;;;22.33;7.22;;;;;;;3.52;72.55;101003.91;4399596;32;20117;-91
2021/01/13 00:54:06;;;;;;;20.35;7.00;;;;;;;3.54;72.59;100999.59;4396104;32;20062;-91
2021/01/13 00:56:34;;;;;;;17.65;6.12;;;;;;;3.56;72.54;100997.19;4416807;32;20046;-91
2021/01/13 00:58:59;;;;;;;16.33;6.25;;;;;;;3.51;72.54;100989.22;4398674;32;20373;-91
2021/01/13 01:01:27;;;;;;;17.50;6.65;;;;;;;3.49;72.96;100986.00;4421654;32;20073;-91
2021/01/13 01:03:54;;;;;;;18.00;6.45;;;;;;;3.54;73.10;100987.66;4411498;32;20103;-91
2021/01/13 01:06:20;;;;;;;21.73;5.18;;;;;;;3.56;72.90;100986.06;4415403;32;20046;-89
2021/01/13 01:08:46;;;;;;;16.75;5.05;;;;;;;3.61;72.41;100996.03;4403022;32;20136;-91
2021/01/13 01:11:13;;;;;;;14.57;6.40;;;;;;;3.64;71.72;100993.28;4413234;32;20409;-90
2021/01/13 01:13:39;;;;;;;19.92;5.68;;;;;;;3.65;71.56;100992.09;4412705;32;20414;-89
2021/01/13 01:16:05;;;;;;;12.80;5.32;;;;;;;3.65;71.80;100980.19;4418126;32;20057;-90
2021/01/13 01:18:30;;;;;;;17.42;5.20;;;;;;;3.69;72.34;100969.88;4414247;32;20038;-90
2021/01/13 01:20:56;;;;;;;23.67;5.70;;;;;;;3.79;71.94;100969.16;4421168;32;20414;-91
2021/01/13 01:23:22;;;;;;;20.48;6.00;;;;;;;3.85;71.57;100976.75;4411423;32;20046;-90
2021/01/13 01:25:47;;;;;;;16.65;6.37;;;;;;;3.74;70.62;100969.50;4412661;32;20099;-90
2021/01/13 01:28:13;;;;;;;13.73;5.37;;;;;;;3.79;71.54;100981.09;4416664;32;20476;-92
2021/01/13 01:30:38;;;;;;;19.00;6.45;;;;;;;3.87;71.79;100993.06;4412914;32;20098;-90
2021/01/13 01:33:04;;;;;;;16.42;5.53;;;;;;;3.89;71.73;100974.78;4411845;32;20042;-90
2021/01/13 01:35:30;;;;;;;13.77;5.35;;;;;;;3.97;71.78;100978.41;4418367;32;20068;-90
2021/01/13 01:37:56;;;;;;;19.80;5.30;;;;;;;4.04;71.62;100972.87;4417618;32;20096;-91
2021/01/13 01:40:22;;;;;;;12.82;5.37;;;;;;;4.12;71.42;100985.69;4431986;32;20030;-89
2021/01/13 01:42:52;;;;;;;15.05;5.85;;;;;;;4.12;70.83;100980.88;4434608;32;20025;-91
2021/01/13 01:45:20;;;;;;;19.35;5.90;;;;;;;4.21;71.09;100980.56;4415833;32;20037;-92
2021/01/13 01:48:25;;;;;;;10.50;4.47;;;;;;;4.24;70.49;100971.41;4433128;32;20030;-91
2021/01/13 01:50:52;;;;;;;18.50;5.12;;;;;;;4.27;69.87;100975.41;4430322;32;20050;-90
2021/01/13 01:56:26;;;;;;;14.90;4.00;;;;;;;4.34;69.94;100976.25;3987383;32;15024363;-76
2021/01/13 01:59:12;;;;;;;15.60;3.05;;;;;;;4.26;69.22;100974.59;4446025;32;20068;-77
2021/01/13 02:09:37;;;;;;;9.48;3.85;;;;;;;4.58;69.53;100985.91;3990294;32;15028054;-76
2021/01/13 02:12:12;;;;;;;9.50;3.83;;;;;;;4.58;69.55;100989.50;4437507;32;20034;-76
2021/01/13 02:14:41;;;;;;;18.25;5.05;;;;;;;4.16;70.64;100978.12;4442817;32;20014;-74
2021/01/13 02:17:09;;;;;;;14.57;4.80;;;;;;;4.11;70.59;100976.50;4445879;32;20418;-76
2021/01/13 02:22:26;;;;;;;11.70;5.22;;;;;;;4.01;70.49;100980.03;4004650;31;15018494;-75
2021/01/13 02:28:08;;;;;;;11.35;4.57;;;;;;;4.58;70.32;100967.19;3986720;32;15021968;-76
2021/01/13 02:33:53;;;;;;;16.98;5.10;;;;;;;4.73;69.70;100971.63;3959842;32;15726576;-76
2021/01/13 02:38:57;;;;;;;14.25;5.93;;;;;;;4.72;69.61;100980.38;3985950;32;15027329;-76
2021/01/13 02:41:31;;;;;;;15.25;5.45;;;;;;;4.72;69.61;100980.38;4446319;32;20033;-75
2021/01/13 02:43:58;;;;;;;12.55;4.57;;;;;;;4.34;71.21;100970.66;4445259;32;20077;-76
2021/01/13 02:47:00;;;;;;;10.20;3.42;;;;;;;4.40;70.57;100974.69;4446043;32;20033;-76
2021/01/13 02:49:30;;;;;;;10.93;3.60;;;;;;;4.37;69.52;100967.09;4446175;32;20021;-75
2021/01/13 02:51:58;;;;;;;12.52;3.87;;;;;;;4.43;69.33;100959.97;4446645;32;20018;-76
2021/01/13 02:59:45;;;;;;;9.60;3.65;;;;;;;4.74;69.87;100964.03;3990080;32;15022246;-76
2021/01/13 03:02:11;;;;;;;7.80;3.12;;;;;;;4.31;70.48;100953.91;4440024;32;20041;-75
2021/01/13 03:04:39;;;;;;;13.43;3.90;;;;;;;4.25;70.64;100949.91;4443472;32;20037;-76
2021/01/13 03:07:11;;;;;;;10.00;4.03;;;;;;;4.19;71.02;100943.94;4438684;32;20099;-75
2021/01/13 03:09:38;;;;;;;11.30;3.85;;;;;;;4.14;71.13;100938.72;4435055;32;20343;-76
2021/01/13 03:12:18;;;;;;;8.93;3.53;;;;;;;4.08;71.30;100943.06;4442236;32;20037;-76
2021/01/13 03:14:50;;;;;;;10.40;3.53;;;;;;;4.07;71.39;100925.56;4439913;32;20017;-76
2021/01/13 03:17:30;;;;;;;17.17;3.90;;;;;;;3.87;72.34;100929.81;4443324;32;20116;-76
2021/01/13 03:20:34;;;;;;;7.45;3.20;;;;;;;3.86;72.34;100927.44;4445648;32;20026;-75
2021/01/13 03:28:34;;;;;;;9.63;3.80;;;;;;;4.25;71.71;100930.41;3988641;32;15022877;-74
2021/01/13 03:31:01;;;;;;;8.82;3.40;;;;;;;3.85;72.56;100917.50;4445663;32;20426;-73
2021/01/13 03:36:08;;;;;;;13.40;4.03;;;;;;;3.97;72.49;100917.16;3985724;32;15183992;-74
2021/01/13 03:38:42;;;;;;;12.55;4.22;;;;;;;3.91;71.88;100908.41;4436805;32;20370;-75
2021/01/13 03:41:08;;;;;;;10.23;3.65;;;;;;;3.96;72.23;100908.00;4438567;32;20022;-74
2021/01/13 03:43:37;;;;;;;18.80;4.20;;;;;;;4.03;71.85;100907.25;4435374;32;20063;-75
2021/01/13 03:46:05;;;;;;;9.48;3.50;;;;;;;4.11;71.21;100912.47;4444499;32;20056;-74
2021/01/13 03:48:51;;;;;;;11.55;3.42;;;;;;;4.11;71.13;100909.66;4437295;32;20096;-75
2021/01/13 03:54:18;;;;;;;10.27;3.17;;;;;;;4.37;70.99;100921.72;3991233;32;15026966;-74
2021/01/13 03:56:55;;;;;;;8.27;3.22;;;;;;;4.37;70.99;100921.72;4441747;32;20139;-75
2021/01/13 03:59:36;;;;;;;9.52;3.42;;;;;;;4.02;71.72;100908.44;4439970;32;20138;-74
2021/01/13 04:02:04;;;;;;;7.32;2.60;;;;;;;4.15;71.53;100918.84;4446128;32;20063;-75
2021/01/13 04:05:09;;;;;;;10.50;3.15;;;;;;;4.24;70.90;100920.47;4439789;32;20060;-74
2021/01/13 04:07:38;;;;;;;8.65;3.62;;;;;;;4.38;70.72;100928.91;4445981;32;20056;-74
2021/01/13 04:10:13;;;;;;;11.95;3.87;;;;;;;4.45;70.36;100918.56;4444184;32;20025;-75
2021/01/13 04:13:06;;;;;;;15.52;3.67;;;;;;;4.46;69.86;100917.38;4440025;32;20025;-76
2021/01/13 04:15:37;;;;;;;8.80;3.30;;;;;;;4.37;69.77;100922.53;4445939;32;20045;-75
2021/01/13 04:18:05;;;;;;;8.23;3.08;;;;;;;4.37;69.56;100921.72;4444041;32;20033;-76
2021/01/13 04:20:31;;;;;;;8.15;2.97;;;;;;;4.35;69.75;100910.19;4445537;32;20100;-75
2021/01/13 04:22:57;;;;;;;8.00;3.33;;;;;;;4.29;69.81;100912.53;4444394;32;20026;-76
2021/01/13 04:25:23;;;;;;;6.82;3.20;;;;;;;4.27;70.23;100909.34;4445715;32;20041;-75
2021/01/13 04:27:49;;;;;;;8.57;3.28;;;;;;;4.32;69.50;100908.19;4445078;32;20052;-75
2021/01/13 04:30:16;;;;;;;12.60;3.50;;;;;;;4.37;69.20;100903.03;4444960;32;20076;-74
2021/01/13 04:32:43;;;;;;;10.23;3.15;;;;;;;4.36;68.20;100897.84;4445018;32;20141;-74
2021/01/13 04:35:09;;;;;;;11.43;4.10;;;;;;;4.41;69.20;100892.69;4428947;32;20070;-76
2021/01/13 04:37:35;;;;;;;7.40;3.67;;;;;;;4.43;69.49;100904.25;4429102;32;20475;-76
2021/01/13 04:40:29;;;;;;;7.80;3.00;;;;;;;4.48;69.42;100889.13;4430254;32;20018;-75
2021/01/13 04:43:00;;;;;;;10.80;4.32;;;;;;;4.55;69.32;100895.50;4429586;32;20513;-76
2021/01/13 04:48:20;;;;;;;8.55;3.12;;;;;;;5.04;68.37;100889.22;3990408;32;15024803;-75
2021/01/13 04:50:49;;;;;;;9.02;3.75;;;;;;;5.04;68.37;100889.22;4451672;32;20075;-74
2021/01/13 04:53:18;;;;;;;9.68;3.45;;;;;;;4.64;68.71;100892.34;4452606;32;20137;-75
2021/01/13 05:07:15;;;;;;;12.27;3.60;;;;;;;4.94;68.66;100876.84;3987832;32;15022265;-74
2021/01/13 05:09:51;;;;;;;8.93;2.97;;;;;;;4.94;68.66;100876.84;4437252;32;20110;-75
2021/01/13 05:12:17;;;;;;;13.57;3.78;;;;;;;4.50;69.71;100879.16;4437899;32;20438;-75
2021/01/13 05:14:44;;;;;;;10.63;3.67;;;;;;;4.57;69.58;100875.62;4439029;32;20013;-75
2021/01/13 05:17:33;;;;;;;10.25;3.12;;;;;;;4.64;69.54;100865.28;4441005;32;20384;-73
2021/01/13 05:22:45;;;;;;;8.88;3.90;;;;;;;5.31;68.47;100862.53;3985131;32;15025294;-74
2021/01/13 05:25:11;;;;;;;9.63;3.83;;;;;;;5.31;68.47;100862.53;4446451;32;20071;-74
2021/01/13 05:30:36;;;;;;;10.70;3.72;;;;;;;5.31;67.53;100865.31;3986284;32;15023212;-76
2021/01/13 05:33:06;;;;;;;9.10;3.65;;;;;;;5.31;67.53;100865.31;4441249;32;20033;-74
2021/01/13 05:35:35;;;;;;;9.30;3.97;;;;;;;4.86;68.88;100868.88;4435780;32;20064;-74
2021/01/13 05:38:25;;;;;;;11.23;3.70;;;;;;;4.89;69.33;100862.50;4434468;32;20422;-74
2021/01/13 05:41:00;;;;;;;11.60;3.72;;;;;;;4.99;69.83;100865.31;4439368;32;20030;-75
2021/01/13 05:43:26;;;;;;;;;;;;;;;5.10;69.44;100868.91;4442191;32;20017;-76
2021/01/13 05:45:52;;;;;;;10.10;3.55;;;;;;;5.21;68.46;100866.09;4439087;32;19971;-76
2021/01/13 05:50:55;;;;;;;16.52;4.90;;;;;;;5.42;68.72;100864.09;3963532;32;15725431;-75
2021/01/13 05:53:24;;;;;;;13.30;4.62;;;;;;;5.35;68.50;100854.94;4437662;32;20037;-74
2021/01/13 05:55:51;;;;;;;11.35;5.07;;;;;;;5.41;68.83;100856.94;4440074;32;20132;-73
2021/01/13 05:58:22;;;;;;;14.70;5.50;;;;;;;5.34;67.93;100861.72;4436190;32;20292;-76
2021/01/13 06:00:51;;;;;;;13.82;5.15;;;;;;;5.32;68.74;100864.09;4439746;32;20074;-74
2021/01/13 06:03:22;;;;;;;13.65;5.78;;;;;;;5.34;69.41;100856.91;4438086;32;20041;-77
2021/01/13 06:08:32;;;;;;;12.37;5.10;;;;;;;5.43;68.48;100846.16;3991691;32;15022061;-75
2021/01/13 06:11:00;;;;;;;11.10;4.72;;;;;;;5.31;67.45;100852.12;4446334;32;20021;-76
2021/01/13 06:13:29;;;;;;;10.93;4.68;;;;;;;5.26;68.92;100848.97;4443954;32;20053;-75
2021/01/13 06:16:00;;;;;;;9.02;4.10;;;;;;;5.19;69.25;100849.75;4443937;32;20080;-77
2021/01/13 06:18:26;;;;;;;10.82;4.30;;;;;;;5.21;69.68;100852.94;4445714;32;20061;-76
2021/01/13 06:20:56;;;;;;;9.77;4.57;;;;;;;5.19;70.00;100838.59;4442120;32;20096;-76
2021/01/13 06:23:22;;;;;;;13.55;4.47;;;;;;;5.18;70.15;100842.59;4442778;32;20116;-75
2021/01/13 06:25:53;;;;;;;17.80;7.85;;;;;;;5.23;70.10;100844.19;4442695;32;20096;-77
2021/01/13 06:31:02;;;;;;;14.80;4.12;;;;;;;5.28;70.32;100847.34;3993804;32;15028477;-76
2021/01/13 06:33:34;;;;;;;10.27;4.97;;;;;;;5.13;70.77;100840.22;4438052;32;20042;-76
2021/01/13 06:38:53;;;;;;;13.95;4.75;;;;;;;5.49;70.98;100843.75;3960345;32;15731517;-75
2021/01/13 06:41:19;;;;;;;17.08;5.90;;;;;;;5.49;70.98;100843.75;4436130;32;20033;-77
2021/01/13 06:44:06;;;;;;;22.55;5.80;;;;;;;5.09;72.61;100835.84;4436071;32;20089;-78
2021/01/13 06:46:35;;;;;;;13.90;6.28;;;;;;;5.19;72.90;100844.16;4436871;32;20026;-76
2021/01/13 06:49:21;;;;;;;14.32;5.75;;;;;;;5.17;72.50;100843.00;4441154;32;20030;-77
2021/01/13 06:51:51;;;;;;;10.48;4.87;;;;;;;5.26;72.56;100843.37;4424630;32;20033;-77
2021/01/13 06:54:18;;;;;;;14.02;5.78;;;;;;;5.15;72.20;100840.59;4439804;32;20037;-77
2021/01/13 06:59:24;;;;;;;12.80;5.37;;;;;;;5.68;72.53;100844.09;3985171;32;15024384;-74
2021/01/13 07:04:27;;;;;;;20.65;6.75;;;;;;;5.67;73.09;100834.13;4005871;31;15018851;-76
2021/01/13 07:07:08;;;;;;;12.45;5.72;;;;;;;5.67;73.09;100834.13;4462660;32;20044;-77
2021/01/13 07:14:50;;;;;;;19.05;6.10;;;;;;;5.83;72.77;100830.94;3985598;32;15021991;-77
2021/01/13 07:17:18;;;;;;;16.45;6.00;;;;;;;5.83;72.77;100830.94;4445205;32;20115;-76
2021/01/13 07:19:46;;;;;;;14.57;5.93;;;;;;;5.44;73.32;100831.00;4446270;32;20041;-77
2021/01/13 07:22:13;;;;;;;17.10;5.82;;;;;;;5.45;73.28;100831.78;4442961;32;20133;-76
2021/01/13 07:24:41;;;;;;;15.95;6.05;;;;;;;5.43;72.74;100834.97;4443064;32;20052;-75
2021/01/13 07:27:07;;;;;;;22.05;6.62;;;;;;;5.32;73.47;100822.25;4446249;32;20081;-77
2021/01/13 07:29:33;;;;;;;19.70;6.07;;;;;;;5.28;73.87;100825.03;4446165;32;20018;-75
2021/01/13 07:31:59;;;;;;;20.00;6.05;;;;;;;5.12;73.77;100821.09;4438954;32;20033;-75
2021/01/13 07:34:38;;;;;;;19.12;6.25;;;;;;;5.22;74.05;100825.84;4432152;32;20037;-76
2021/01/13 07:37:16;;;;;;;14.30;6.82;;;;;;;5.27;73.94;100819.84;4430842;32;20101;-75
2021/01/13 07:50:50;;;;;;;15.02;6.03;;;;;;;5.81;72.56;100831.34;3988820;32;15025472;-78
2021/01/13 07:53:35;;;;;;;15.30;6.57;;;;;;;5.81;72.56;100831.34;4441845;32;20030;-78
2021/01/13 07:56:03;;;;;;;16.45;6.80;;;;;;;5.43;73.77;100828.62;4439250;32;20099;-78
2021/01/13 07:58:30;;;;;;;17.08;7.43;;;;;;;5.41;73.86;100837.41;4444715;32;20037;-78
2021/01/13 08:06:57;;;;;;;17.90;7.60;;;;;;;5.73;73.14;100840.09;3990768;32;15016671;-76
2021/01/13 08:09:23;;;;;;;15.32;8.13;;;;;;;5.73;73.14;100840.09;4436155;32;20018;-77
2021/01/13 08:17:55;;;;;;;15.77;7.80;;;;;;;6.28;72.06;100826.31;3985549;32;15022758;-78
2021/01/13 08:23:16;;;;;;;21.17;8.90;;;;;;;6.38;71.73;100819.91;3988645;32;15026282;-77
2021/01/13 08:25:53;;;;;;;24.12;9.65;;;;;;;6.38;71.73;100819.91;4443517;32;20089;-77
2021/01/13 08:28:20;;;;;;;16.65;7.68;;;;;;;6.06;73.56;100822.84;4444125;32;20048;-79
2021/01/13 08:30:48;;;;;;;17.60;7.80;;;;;;;6.06;73.67;100834.03;4439106;32;20073;-76
2021/01/13 08:33:24;;;;;;;18.08;8.85;;;;;;;5.03;72.76;100661.72;4435794;32;20078;-76
2021/01/13 08:35:56;;;;;;;20.70;7.82;;;;;;;6.20;73.56;100835.97;4426060;32;20517;-75
2021/01/13 08:38:23;;;;;;;17.48;7.62;;;;;;;6.25;73.67;100830.72;4426587;32;20049;-79
2021/01/13 08:40:49;;;;;;;22.85;8.43;;;;;;;6.34;73.64;100835.88;4425268;32;20141;-77
2021/01/13 08:43:17;;;;;;;19.20;9.85;;;;;;;6.43;72.99;100836.22;4429788;32;20125;-78
2021/01/13 08:48:22;;;;;;;19.92;9.45;;;;;;;7.07;71.79;100843.78;3986036;32;15023407;-78
2021/01/13 08:53:40;;;;;;;23.25;8.73;;;;;;;7.15;71.50;100847.31;3987138;32;15022558;-84
2021/01/13 08:56:06;;;;;;;19.62;8.02;;;;;;;7.15;71.50;100847.31;4444652;32;20151;-86
2021/01/13 08:58:33;;;;;;;21.83;9.05;;;;;;;6.77;72.53;100838.00;4433107;32;20021;-83
2021/01/13 09:01:05;;;;;;;21.35;9.85;;;;;;;6.65;71.68;100830.09;4444062;32;20060;-81
2021/01/13 09:03:37;;;;;;;28.50;9.57;;;;;;;6.57;72.57;100831.38;4439070;32;20066;-82
2021/01/13 09:06:24;;;;;;;35.35;11.07;;;;;;;6.57;73.20;100839.75;4438517;32;20532;-78
2021/01/13 09:08:51;;;;;;;26.65;10.07;;;;;;;6.56;72.85;100835.34;4442810;32;20119;-80
2021/01/13 09:16:55;;;;;;;21.62;9.07;;;;;;;7.21;73.35;100838.03;3985849;32;15026147;-80
2021/01/13 09:19:42;;;;;;;21.52;10.18;;;;;;;7.21;73.35;100838.03;4438363;32;20061;-81
2021/01/13 09:22:09;;;;;;;23.83;10.10;;;;;;;6.86;74.12;100831.94;4435465;32;20088;-83
2021/01/13 09:24:42;;;;;;;19.48;9.38;;;;;;;6.88;74.01;100833.13;4439945;32;20074;-86
2021/01/13 09:27:10;;;;;;;22.90;10.18;;;;;;;6.90;73.65;100829.94;4439067;32;20088;-79
2021/01/13 09:32:30;;;;;;;25.98;9.40;;;;;;;7.37;72.20;100837.50;3988315;31;15031864;-77
2021/01/13 09:34:57;;;;;;;17.48;9.60;;;;;;;7.37;72.20;100837.50;4447394;32;20033;-77
2021/01/13 09:37:27;;;;;;;20.58;8.13;;;;;;;6.99;72.31;100831.03;4424507;32;20081;-77
2021/01/13 09:40:02;;;;;;;21.42;10.10;;;;;;;7.05;72.34;100831.38;4445576;32;20132;-79
2021/01/13 09:42:45;;;;;;;22.73;8.80;;;;;;;7.07;72.21;100827.00;4444436;32;20091;-82
2021/01/13 09:45:13;;;;;;;26.75;10.50;;;;;;;7.02;71.25;100826.63;4442676;32;20075;-81
2021/01/13 09:47:40;;;;;;;26.12;14.13;;;;;;;7.02;72.02;100827.41;4444555;32;20041;-78
2021/01/13 09:50:10;;;;;;;24.12;11.45;;;;;;;6.98;73.11;100825.84;4443549;32;20083;-82
2021/01/13 09:52:44;;;;;;;30.17;16.45;;;;;;;7.00;73.09;100829.81;4446746;32;20033;-81
2021/01/13 09:55:11;;;;;;;17.33;9.32;;;;;;;7.05;72.13;100825.78;4446054;32;20307;-83
2021/01/13 09:57:38;;;;;;;20.27;8.80;;;;;;;7.00;71.79;100829.81;4431098;32;20118;-77
2021/01/13 10:00:09;;;;;;;23.70;9.52;;;;;;;6.94;71.21;100839.09;4449081;32;20483;-78
2021/01/13 10:02:36;;;;;;;22.98;9.82;;;;;;;6.89;72.16;100839.50;4450006;32;20033;-78
2021/01/13 10:05:02;;;;;;;20.20;8.85;;;;;;;6.78;72.25;100836.00;4448024;32;20143;-75
2021/01/13 10:07:31;;;;;;;18.92;9.05;;;;;;;6.70;72.81;100840.84;4446031;32;20042;-78
2021/01/13 10:09:58;;;;;;;25.15;8.68;;;;;;;6.75;73.59;100845.22;4451138;32;20029;-77
2021/01/13 10:12:46;;;;;;;20.70;9.93;;;;;;;6.72;73.04;100846.81;4448632;32;20108;-79
2021/01/13 10:15:13;;;;;;;26.52;9.13;;;;;;;6.78;73.33;100841.59;4446831;32;20041;-78
2021/01/13 10:17:41;;;;;;;20.37;7.57;;;;;;;6.79;74.33;100840.37;4447811;32;20053;-79
2021/01/13 10:22:54;;;;;;;14.65;7.07;;;;;;;7.27;72.76;100850.37;3940574;32;15729211;-76
2021/01/13 10:25:35;;;;;;;15.18;7.22;;;;;;;7.27;72.76;100850.37;4413087;32;20049;-77
2021/01/13 10:28:01;;;;;;;14.80;7.03;;;;;;;6.57;74.36;100852.94;4418893;32;20072;-76
2021/01/13 10:30:28;;;;;;;14.15;6.35;;;;;;;6.39;75.08;100836.25;4401583;32;20426;-76
2021/01/13 10:32:55;;;;;;;14.50;5.43;;;;;;;6.44;75.79;100855.38;4415907;32;20073;-76
2021/01/13 10:35:23;;;;;;;14.07;5.00;;;;;;;6.56;74.92;100860.50;4404203;32;20610;-78
2021/01/13 10:37:56;;;;;;;9.30;3.67;;;;;;;6.58;75.17;100862.91;4399905;32;20046;-77
2021/01/13 10:40:23;;;;;;;9.82;3.90;;;;;;;6.57;74.06;100855.72;4387560;32;20039;-75
2021/01/13 10:42:52;;;;;;;10.00;3.95;;;;;;;6.60;74.35;100855.69;4399319;32;20098;-75
2021/01/13 10:45:19;;;;;;;9.68;3.15;;;;;;;6.59;74.79;100858.91;4400924;32;20058;-75
2021/01/13 10:50:32;;;;;;;11.38;3.05;;;;;;;6.96;74.13;100859.06;3988953;32;15023864;-75
2021/01/13 10:53:00;;;;;;;13.57;3.35;;;;;;;6.96;74.13;100859.06;4435312;32;20038;-77
2021/01/13 10:55:29;;;;;;;9.43;2.97;;;;;;;6.55;75.90;100858.13;4436892;32;20066;-75
2021/01/13 10:57:56;;;;;;;9.30;3.42;;;;;;;6.53;75.71;100847.34;4436533;32;20543;-76
2021/01/13 11:00:24;;;;;;;9.70;2.95;;;;;;;6.55;75.76;100846.94;4431931;32;20455;-76
2021/01/13 11:02:53;;;;;;;13.07;3.40;;;;;;;6.50;76.28;100848.16;4429789;32;20052;-76
2021/01/13 11:05:19;;;;;;;12.07;3.80;;;;;;;6.38;76.95;100850.66;4439277;32;20025;-76
2021/01/13 11:07:49;;;;;;;11.02;3.97;;;;;;;6.53;78.09;100846.56;4434132;32;20038;-76
2021/01/13 11:10:16;;;;;;;18.10;4.03;;;;;;;6.64;78.14;100850.06;4440182;32;20059;-77
2021/01/13 11:12:42;;;;;;;7.37;3.15;;;;;;;6.68;78.43;100843.25;4432901;32;20063;-76
2021/01/13 11:15:09;;;;;;;13.30;3.75;;;;;;;6.79;78.55;100846.00;4423573;32;20074;-74
2021/01/13 11:17:36;;;;;;;7.68;3.30;;;;;;;6.62;77.70;100842.09;4423508;32;20058;-75
2021/01/13 11:20:05;;;;;;;6.57;2.75;;;;;;;6.76;79.33;100844.00;4434941;32;20452;-75
2021/01/13 11:22:52;;;;;;;8.93;2.85;;;;;;;6.78;78.62;100833.22;4420234;32;20462;-73
2021/01/13 11:28:02;;;;;;;10.77;3.37;;;;;;;7.19;78.39;100832.06;4000495;31;15022302;-78
2021/01/13 11:30:29;;;;;;;8.88;2.87;;;;;;;7.19;78.39;100832.06;4459489;32;20055;-76
2021/01/13 11:32:58;;;;;;;6.72;3.33;;;;;;;6.58;78.93;100827.34;4460732;32;20107;-75
2021/01/13 11:35:32;;;;;;;10.02;3.53;;;;;;;6.68;79.52;100828.47;4452761;32;20068;-74
2021/01/13 11:41:28;;;;;;;6.00;2.97;;;;;;;7.29;79.87;100833.97;4003439;31;15017750;-78
2021/01/13 11:44:22;;;;;;;7.57;3.03;;;;;;;7.29;79.87;100833.97;4464132;32;20078;-79
2021/01/13 11:47:03;;;;;;;10.98;3.50;;;;;;;6.94;81.23;100833.50;4462309;32;20137;-77
2021/01/13 11:52:16;;;;;;;8.90;3.17;;;;;;;7.54;81.63;100839.31;3987559;32;15022840;-78
2021/01/13 11:54:47;;;;;;;20.10;11.88;;;;;;;7.54;81.63;100839.31;4451551;32;20037;-78
2021/01/13 11:57:34;;;;;;;13.57;4.40;;;;;;;7.08;82.14;100831.38;4437399;32;20045;-76
2021/01/13 12:00:18;;;;;;;11.30;3.70;;;;;;;7.10;82.28;100833.75;4442204;32;20091;-78
2021/01/13 12:02:50;;;;;;;13.18;4.18;;;;;;;7.16;82.44;100844.09;4439298;32;20049;-77
2021/01/13 12:05:27;;;;;;;11.80;3.60;;;;;;;7.21;82.09;100838.03;4440266;32;20045;-78
2021/01/13 12:08:05;;;;;;;10.00;3.67;;;;;;;7.27;81.74;100832.81;4451605;32;20037;-78
2021/01/13 12:10:36;;;;;;;6.45;3.55;;;;;;;7.23;81.33;100837.63;4446145;32;20073;-74
2021/01/13 12:15:50;;;;;;;16.75;7.05;;;;;;;7.63;80.58;100820.03;4011392;31;15017564;-75
2021/01/13 12:18:22;;;;;;;18.70;6.82;;;;;;;7.63;80.58;100820.03;4469842;32;20515;-76
2021/01/13 12:20:50;;;;;;;13.20;5.03;;;;;;;7.19;80.51;100809.69;4469569;32;20048;-75
2021/01/13 12:25:52;;;;;;;9.23;4.90;;;;;;;7.83;79.67;100809.81;3990887;32;15023033;-76
2021/01/13 12:28:18;;;;;;;9.73;4.62;;;;;;;7.83;79.67;100809.81;4442861;32;20196;-77
2021/01/13 12:30:52;;;;;;;7.62;4.05;;;;;;;7.47;81.13;100798.22;4444390;32;20108;-79
2021/01/13 12:33:19;;;;;;;5.90;4.30;;;;;;;7.68;81.13;100800.78;4438649;32;20034;-78
2021/01/13 12:35:45;;;;;;;6.75;3.72;;;;;;;7.75;80.32;100806.28;4425783;32;20441;-80
2021/01/13 12:38:11;;;;;;;7.10;4.22;;;;;;;7.71;79.29;100813.16;4423988;32;20034;-78
2021/01/13 12:40:36;;;;;;;10.65;4.80;;;;;;;7.72;80.21;100817.53;4429790;32;20088;-78
2021/01/13 12:43:11;;;;;;;8.20;4.68;;;;;;;7.70;79.65;100798.34;4430187;32;20431;-76
2021/01/13 12:45:37;;;;;;;9.98;4.28;;;;;;;7.85;80.72;100808.16;4429388;32;20041;-78
2021/01/13 12:48:03;;;;;;;13.13;6.57;;;;;;;7.92;80.80;100796.87;4427033;32;20053;-78
2021/01/13 12:50:29;;;;;;;10.52;5.80;;;;;;;8.05;80.50;100797.13;4430763;32;20030;-78
2021/01/13 12:52:54;;;;;;;7.97;3.90;;;;;;;8.13;79.72;100796.59;4425093;32;20591;-78
2021/01/13 12:55:20;;;;;;;11.25;4.70;;;;;;;8.05;77.60;100794.31;4425394;32;20053;-75
2021/01/13 12:57:46;;;;;;;6.60;4.70;;;;;;;7.93;76.36;100794.88;4427638;32;20399;-77
2021/01/13 13:00:12;;;;;;;10.18;5.30;;;;;;;7.91;78.38;100784.06;4429014;32;20094;-78
2021/01/13 13:02:42;;;;;;;21.02;11.77;;;;;;;7.90;77.99;100778.91;4426649;32;20052;-77
2021/01/13 13:05:08;;;;;;;17.05;8.88;;;;;;;8.01;80.18;100788.75;4428341;32;20073;-79
2021/01/13 13:07:34;;;;;;;17.65;9.35;;;;;;;8.08;79.87;100785.06;4428902;32;20052;-76
2021/01/13 13:10:00;;;;;;;25.05;11.65;;;;;;;8.15;79.65;100782.16;4430139;32;20045;-77
2021/01/13 13:12:26;;;;;;;21.00;10.13;;;;;;;8.15;79.10;100785.78;4428888;32;20358;-79
2021/01/13 13:14:51;;;;;;;15.90;8.73;;;;;;;8.11;79.56;100782.19;4428605;32;20057;-77
2021/01/13 13:17:17;;;;;;;16.87;7.53;;;;;;;8.16;79.92;100778.94;4426144;32;20132;-76
2021/01/13 13:19:43;;;;;;;24.75;8.70;;;;;;;8.14;78.70;100783.38;4429078;32;20437;-78
2021/01/13 13:22:09;;;;;;;32.50;11.65;;;;;;;8.20;79.50;100788.09;4427312;32;20057;-77
2021/01/13 13:24:34;;;;;;;26.77;11.70;;;;;;;8.21;79.24;100786.09;4426992;32;20088;-76
2021/01/13 13:27:00;;;;;;;29.73;12.43;;;;;;;8.22;79.42;100784.88;4426666;32;20026;-78
2021/01/13 13:29:26;;;;;;;21.40;9.95;;;;;;;8.24;79.11;100781.66;4428376;32;20104;-77
2021/01/13 13:31:51;;;;;;;18.60;9.23;;;;;;;8.16;78.89;100781.75;4425473;32;20075;-77
2021/01/13 13:34:17;;;;;;;21.58;10.50;;;;;;;8.15;79.25;100784.97;4425183;32;20426;-78
2021/01/13 13:36:43;;;;;;;31.05;13.18;;;;;;;8.06;78.84;100781.88;4408678;32;20046;-77
2021/01/13 13:39:09;;;;;;;25.48;11.63;;;;;;;8.00;79.47;100786.37;4416728;32;20380;-79
2021/01/13 13:41:35;;;;;;;28.12;12.82;;;;;;;7.97;80.05;100792.81;4418355;32;20073;-82
2021/01/13 13:44:00;;;;;;;31.45;13.95;;;;;;;8.01;80.14;100782.37;4416306;32;20427;-79
2021/01/13 13:46:26;;;;;;;34.08;14.68;;;;;;;8.03;80.36;100785.53;4413127;32;20083;-78
2021/01/13 13:48:54;;;;;;;43.65;17.00;;;;;;;8.05;80.41;100788.72;4417312;32;20091;-78
2021/01/13 13:51:20;;;;;;;37.28;16.90;;;;;;;8.06;80.28;100793.09;4417798;32;20382;-79
2021/01/13 13:53:46;;;;;;;34.55;16.08;;;;;;;8.05;80.54;100791.50;4418294;32;20070;-78
2021/01/13 13:56:17;;;;;;;29.63;14.85;;;;;;;8.06;80.08;100791.09;4418193;32;20053;-78